createdAt,value
2022-08-07T18:26:05.405Z,23.04
2022-08-07T18:28:57.680Z,22.81
2022-08-07T18:31:59.415Z,22.88
2022-08-07T18:35:00.818Z,22.76
2022-08-07T18:38:57.999Z,22.54
2022-08-07T18:41:56.890Z,22.45
2022-08-07T18:45:43.303Z,22.42
2022-08-07T18:47:44.976Z,22.37
2022-08-07T18:50:39.456Z,22.38
2022-08-07T18:53:36.827Z,22.15
2022-08-07T18:56:34.976Z,22.05
2022-08-07T18:59:46.964Z,22.14
2022-08-07T19:02:44.685Z,21.88
2022-08-07T19:06:03.168Z,21.64
2022-08-07T19:08:29.209Z,21.57
2022-08-07T19:11:35.031Z,21.47
2022-08-07T19:14:20.330Z,21.44
2022-08-07T19:17:06.388Z,21.36
2022-08-07T19:19:37.700Z,21.43
2022-08-07T19:22:11.185Z,21.48
2022-08-07T19:24:46.153Z,21.41
2022-08-07T19:28:30.838Z,21.31
2022-08-07T19:31:02.940Z,21.32
2022-08-07T19:33:10.080Z,21.25
2022-08-07T19:35:40.849Z,21.19
2022-08-07T19:38:16.793Z,21.13
2022-08-07T19:40:49.637Z,21.12
2022-08-07T19:43:48.775Z,21.22
2022-08-07T19:46:10.684Z,20.99
2022-08-07T19:48:43.691Z,21.20
2022-08-07T19:51:20.226Z,20.95
2022-08-07T19:54:34.647Z,20.82
2022-08-07T19:58:01.868Z,20.77
2022-08-07T19:59:45.860Z,20.84
2022-08-07T20:02:19.471Z,20.90
2022-08-07T20:04:51.883Z,20.61
2022-08-07T20:07:47.586Z,20.62
2022-08-07T20:10:37.683Z,20.63
2022-08-07T20:13:22.691Z,20.54
2022-08-07T20:15:53.860Z,20.62
2022-08-07T20:18:32.586Z,20.58
2022-08-07T20:21:02.267Z,20.48
2022-08-07T20:23:42.934Z,20.30
2022-08-07T20:26:29.573Z,20.31
2022-08-07T20:29:01.600Z,20.28
2022-08-07T20:31:44.423Z,20.24
2022-08-07T20:34:15.047Z,20.14
2022-08-07T20:36:44.257Z,20.09
2022-08-07T20:40:01.091Z,20.25
2022-08-07T20:42:14.414Z,20.26
2022-08-07T20:44:49.593Z,20.13
2022-08-07T20:47:25.008Z,20.07
2022-08-07T20:49:57.841Z,19.99
